Time;durP1;ratioP1;P1;durP2;ratioP2;P2;SDS_P1;SDS_P2;PMS_P1;PMS_P2;Temp;Humidity;BMP_temperature;BMP_pressure;BME280_temperature;BME280_humidity;BME280_pressure;Samples;Min_cycle;Max_cycle;Signal;HPM_P1;HPM_P2
2022/11/11 00:00:50;;;;;;;30.45;11.73;;;;;;;;;;7385640;19;19999;-76
2022/11/11 00:03:15;;;;;;;26.40;11.15;;;;;;;;;;7386476;19;19999;-76
2022/11/11 00:05:40;;;;;;;30.77;11.85;;;;;;;;;;7388939;19;20072;-76
2022/11/11 00:08:06;;;;;;;25.45;12.13;;;;;;;;;;7388152;19;20058;-76
2022/11/11 00:10:31;;;;;;;26.52;11.98;;;;;;;;;;7388690;19;20018;-76
2022/11/11 00:12:59;;;;;;;30.00;12.15;;;;;;;;;;7386047;19;20003;-76
2022/11/11 00:15:24;;;;;;;24.25;11.63;;;;;;;;;;7386071;19;20015;-76
2022/11/11 00:26:11;;;;;;;28.98;12.85;;;;;;;;;;7388080;19;20462;-76
2022/11/11 00:28:37;;;;;;;32.50;13.40;;;;;;;;;;7386260;19;20441;-76
2022/11/11 00:31:04;;;;;;;27.20;12.00;;;;;;;;;;7387306;19;19999;-76
2022/11/11 00:33:29;;;;;;;26.48;11.93;;;;;;;;;;7385919;19;20038;-76
2022/11/11 00:35:55;;;;;;;30.52;12.57;;;;;;;;;;7387659;19;19999;-76
2022/11/11 00:41:04;;;;;;;27.35;11.43;;;;;;;;;;7384926;19;20022;-76
2022/11/11 00:43:30;;;;;;;25.00;12.20;;;;;;;;;;7385720;19;20533;-76
2022/11/11 00:51:25;;;;;;;25.63;11.70;;;;;;;;;;7386703;19;20028;-75
2022/11/11 00:53:50;;;;;;;29.88;11.60;;;;;;;;;;7385414;19;20003;-76
2022/11/11 00:56:16;;;;;;;32.60;12.35;;;;;;;;;;7388211;19;20006;-76
2022/11/11 00:58:41;;;;;;;31.70;12.93;;;;;;;;;;7395044;19;20124;-76
2022/11/11 01:01:07;;;;;;;23.55;11.85;;;;;;;;;;7395234;19;20014;-75
2022/11/11 01:03:32;;;;;;;32.50;12.65;;;;;;;;;;7392018;19;20001;-77
2022/11/11 01:06:02;;;;;;;33.53;11.70;;;;;;;;;;7392462;19;19994;-75
2022/11/11 01:08:28;;;;;;;29.95;12.82;;;;;;;;;;7394678;19;20008;-75
2022/11/11 01:10:53;;;;;;;30.05;12.52;;;;;;;;;;7392775;19;20329;-76
2022/11/11 01:13:21;;;;;;;33.42;12.27;;;;;;;;;;7389690;19;20074;-76
2022/11/11 01:15:49;;;;;;;32.13;13.32;;;;;;;;;;7394802;19;19994;-76
2022/11/11 01:18:16;;;;;;;30.77;13.63;;;;;;;;;;7394238;19;20348;-76
2022/11/11 01:20:42;;;;;;;30.60;12.52;;;;;;;;;;7392819;19;20054;-76
2022/11/11 01:23:09;;;;;;;33.72;12.52;;;;;;;;;;7391596;19;20481;-74
2022/11/11 01:25:35;;;;;;;35.65;12.52;;;;;;;;;;7394311;19;20002;-75
2022/11/11 01:28:02;;;;;;;30.25;11.10;;;;;;;;;;7393570;19;20058;-75
2022/11/11 01:30:27;;;;;;;34.30;12.07;;;;;;;;;;7393688;19;19995;-76
2022/11/11 01:32:52;;;;;;;25.15;10.85;;;;;;;;;;7391307;19;20006;-75
2022/11/11 01:35:18;;;;;;;28.63;11.57;;;;;;;;;;7393472;19;19994;-76
2022/11/11 01:37:43;;;;;;;28.45;11.20;;;;;;;;;;7395801;19;19995;-76
2022/11/11 01:40:09;;;;;;;26.85;10.98;;;;;;;;;;7391998;19;19998;-75
2022/11/11 01:42:52;;;;;;;26.38;10.52;;;;;;;;;;7390942;19;20006;-76
2022/11/11 01:45:51;;;;;;;27.40;10.65;;;;;;;;;;7392811;19;20680;-76
2022/11/11 01:51:22;;;;;;;25.60;10.80;;;;;;;;;;7392522;19;20001;-76
2022/11/11 01:53:55;;;;;;;22.65;10.25;;;;;;;;;;7392497;19;20127;-76
2022/11/11 01:56:21;;;;;;;21.98;9.70;;;;;;;;;;7390463;19;19995;-76
2022/11/11 01:58:47;;;;;;;21.05;8.52;;;;;;;;;;7392495;19;20005;-76
2022/11/11 02:01:12;;;;;;;17.02;7.63;;;;;;;;;;7389661;19;19995;-76
2022/11/11 02:03:39;;;;;;;13.00;7.18;;;;;;;;;;7389758;19;19999;-76
2022/11/11 02:06:06;;;;;;;16.60;7.35;;;;;;;;;;7391789;19;19999;-75
2022/11/11 02:08:35;;;;;;;17.88;7.03;;;;;;;;;;7392361;19;19998;-75
2022/11/11 02:11:13;;;;;;;18.00;7.45;;;;;;;;;;7391308;19;20063;-74
2022/11/11 02:16:24;;;;;;;17.70;8.02;;;;;;;;;;7392015;19;20579;-76
2022/11/11 02:18:49;;;;;;;17.70;7.97;;;;;;;;;;7391966;19;20022;-74
2022/11/11 02:21:39;;;;;;;18.55;7.95;;;;;;;;;;7388762;19;19994;-76
2022/11/11 02:24:08;;;;;;;17.00;7.07;;;;;;;;;;7391414;19;19991;-76
2022/11/11 02:26:36;;;;;;;18.40;7.03;;;;;;;;;;7390961;19;20024;-76
2022/11/11 02:29:07;;;;;;;16.55;6.82;;;;;;;;;;7391050;19;20054;-76
2022/11/11 02:31:32;;;;;;;22.58;7.55;;;;;;;;;;7393411;19;19999;-76
2022/11/11 02:33:57;;;;;;;21.98;7.57;;;;;;;;;;7389834;19;20013;-76
2022/11/11 02:36:23;;;;;;;21.02;7.97;;;;;;;;;;7390876;19;20014;-75
2022/11/11 02:38:49;;;;;;;18.58;8.10;;;;;;;;;;7391036;19;20343;-75
2022/11/11 02:43:59;;;;;;;18.10;6.53;;;;;;;;;;7391745;19;20027;-75
2022/11/11 02:46:24;;;;;;;15.02;6.63;;;;;;;;;;7390858;19;19995;-75
2022/11/11 02:48:50;;;;;;;21.38;6.55;;;;;;;;;;7391179;19;19999;-75
2022/11/11 02:51:15;;;;;;;22.23;6.80;;;;;;;;;;7388390;19;19997;-75
2022/11/11 02:53:40;;;;;;;16.38;6.65;;;;;;;;;;7388893;19;20088;-76
2022/11/11 02:56:06;;;;;;;15.60;6.90;;;;;;;;;;7390396;19;20483;-75
2022/11/11 02:58:32;;;;;;;33.28;8.30;;;;;;;;;;7391058;19;19999;-75
2022/11/11 03:00:57;;;;;;;27.52;7.13;;;;;;;;;;7391783;19;20350;-75
2022/11/11 03:03:22;;;;;;;33.40;8.30;;;;;;;;;;7388036;19;20009;-75
2022/11/11 03:05:48;;;;;;;28.38;7.50;;;;;;;;;;7384159;19;20456;-75
2022/11/11 03:08:14;;;;;;;53.80;8.38;;;;;;;;;;7385754;19;19998;-75
2022/11/11 03:10:39;;;;;;;49.50;9.45;;;;;;;;;;7384424;19;19998;-75
2022/11/11 03:13:05;;;;;;;22.27;8.15;;;;;;;;;;7382253;19;20002;-75
2022/11/11 03:15:30;;;;;;;80.45;9.07;;;;;;;;;;7386132;19;20010;-75
2022/11/11 03:17:55;;;;;;;26.60;8.77;;;;;;;;;;7388877;19;20005;-77
2022/11/11 03:23:13;;;;;;;23.23;8.32;;;;;;;;;;7392376;19;20020;-74
2022/11/11 03:25:41;;;;;;;49.05;8.95;;;;;;;;;;7388590;19;20007;-75
2022/11/11 03:28:13;;;;;;;67.03;10.32;;;;;;;;;;7389344;19;20006;-75
2022/11/11 03:30:41;;;;;;;29.80;9.25;;;;;;;;;;7389167;19;20313;-75
2022/11/11 03:33:08;;;;;;;39.30;10.48;;;;;;;;;;7386914;19;19999;-74
2022/11/11 03:35:34;;;;;;;33.03;9.07;;;;;;;;;;7389168;19;20068;-75
2022/11/11 03:38:14;;;;;;;30.70;9.18;;;;;;;;;;7389496;19;20424;-75
2022/11/11 03:40:44;;;;;;;35.42;9.63;;;;;;;;;;7387397;19;20218;-74
2022/11/11 03:43:10;;;;;;;41.97;9.98;;;;;;;;;;7385853;19;20526;-75
2022/11/11 03:45:35;;;;;;;42.08;10.48;;;;;;;;;;7390339;19;20002;-75
2022/11/11 03:48:01;;;;;;;51.97;10.82;;;;;;;;;;7388675;19;20002;-74
2022/11/11 03:50:26;;;;;;;35.80;10.35;;;;;;;;;;7388313;19;20003;-76
2022/11/11 03:52:51;;;;;;;48.28;10.20;;;;;;;;;;7386899;19;19998;-74
2022/11/11 03:55:17;;;;;;;36.40;10.52;;;;;;;;;;7386415;19;19999;-74
2022/11/11 03:57:45;;;;;;;29.75;9.73;;;;;;;;;;7388102;19;20006;-74
2022/11/11 04:00:12;;;;;;;37.28;9.38;;;;;;;;;;7385750;19;20467;-74
2022/11/11 04:10:54;;;;;;;93.70;10.25;;;;;;;;;;7388646;19;20027;-75
2022/11/11 04:16:07;;;;;;;116.72;12.30;;;;;;;;;;7388507;19;20069;-76
2022/11/11 04:24:02;;;;;;;24.90;9.45;;;;;;;;;;7388116;19;20456;-76
2022/11/11 04:26:27;;;;;;;42.97;9.57;;;;;;;;;;7391385;19;19998;-76
2022/11/11 04:32:34;;;;;;;29.55;9.07;;;;;;;;;;7389257;19;20567;-76
2022/11/11 04:34:22;;;;;;;115.15;10.75;;;;;;;;;;7394875;19;20029;-76
2022/11/11 04:36:47;;;;;;;92.80;10.57;;;;;;;;;;7394885;19;20058;-76
2022/11/11 04:41:56;;;;;;;196.38;12.13;;;;;;;;;;7393825;19;20697;-76
2022/11/11 04:47:05;;;;;;;38.40;10.07;;;;;;;;;;7395088;19;20362;-76
2022/11/11 04:49:30;;;;;;;86.68;9.45;;;;;;;;;;7394722;19;19999;-76
2022/11/11 04:56:46;;;;;;;29.25;9.02;;;;;;;;;;7395208;19;20352;-76
2022/11/11 04:57:24;;;;;;;30.20;9.13;;;;;;;;;;7394549;19;20045;-76
2022/11/11 04:59:50;;;;;;;26.80;8.63;;;;;;;;;;7394138;19;20009;-76
2022/11/11 05:05:06;;;;;;;26.77;9.18;;;;;;;;;;7392679;19;19999;-76
2022/11/11 05:10:15;;;;;;;25.00;8.60;;;;;;;;;;7394964;19;20010;-76
2022/11/11 05:12:41;;;;;;;30.58;9.52;;;;;;;;;;7392454;19;19994;-76
2022/11/11 05:23:19;;;;;;;27.63;9.57;;;;;;;;;;7392343;19;20002;-76
2022/11/11 05:25:44;;;;;;;21.55;8.07;;;;;;;;;;7399991;19;20107;-75
2022/11/11 05:28:10;;;;;;;39.78;8.88;;;;;;;;;;7398137;19;20516;-76
2022/11/11 05:30:40;;;;;;;19.63;7.85;;;;;;;;;;7395010;19;19999;-76
2022/11/11 05:33:05;;;;;;;18.70;7.35;;;;;;;;;;7391612;19;19991;-75
2022/11/11 05:35:30;;;;;;;23.33;8.32;;;;;;;;;;7393966;19;20337;-76
2022/11/11 05:38:19;;;;;;;21.13;7.75;;;;;;;;;;7393521;19;19999;-76
2022/11/11 05:40:44;;;;;;;23.77;7.47;;;;;;;;;;7342293;19;20034;-75
2022/11/11 05:43:09;;;;;;;18.80;7.53;;;;;;;;;;7392880;19;19994;-75
2022/11/11 05:45:50;;;;;;;19.10;6.95;;;;;;;;;;7396218;19;19993;-77
2022/11/11 05:48:15;;;;;;;18.75;7.57;;;;;;;;;;7395346;19;20463;-74
2022/11/11 05:50:41;;;;;;;15.82;6.72;;;;;;;;;;7392891;19;20001;-75
2022/11/11 05:53:07;;;;;;;15.60;6.93;;;;;;;;;;7390178;19;20006;-75
2022/11/11 05:55:32;;;;;;;15.38;6.97;;;;;;;;;;7388525;19;20001;-75
2022/11/11 05:57:58;;;;;;;13.88;6.45;;;;;;;;;;7390756;19;20468;-75
2022/11/11 06:00:23;;;;;;;16.20;6.38;;;;;;;;;;7390729;19;19995;-75
2022/11/11 06:02:48;;;;;;;15.98;6.88;;;;;;;;;;7390130;19;20027;-75
2022/11/11 06:05:14;;;;;;;16.17;6.65;;;;;;;;;;7392197;19;19995;-74
2022/11/11 06:07:39;;;;;;;12.35;6.32;;;;;;;;;;7390427;19;20032;-75
2022/11/11 06:13:03;;;;;;;16.55;6.55;;;;;;;;;;7393472;19;20005;-75
2022/11/11 06:15:29;;;;;;;12.27;5.30;;;;;;;;;;7394662;19;20035;-75
2022/11/11 06:17:54;;;;;;;12.18;5.70;;;;;;;;;;7395350;19;20472;-75
2022/11/11 06:20:19;;;;;;;13.43;6.18;;;;;;;;;;7394053;19;20026;-75
2022/11/11 06:22:57;;;;;;;14.52;6.55;;;;;;;;;;7389382;19;20070;-75
2022/11/11 06:28:12;;;;;;;14.77;5.85;;;;;;;;;;7396568;19;20015;-75
2022/11/11 06:30:39;;;;;;;15.05;6.35;;;;;;;;;;7391965;19;20008;-75
2022/11/11 06:33:06;;;;;;;14.52;5.95;;;;;;;;;;7386446;19;20013;-75
2022/11/11 06:35:33;;;;;;;17.25;5.30;;;;;;;;;;7388806;19;20003;-75
2022/11/11 06:37:58;;;;;;;12.52;5.28;;;;;;;;;;7388711;19;20002;-74
2022/11/11 06:40:23;;;;;;;12.90;5.50;;;;;;;;;;7387543;19;20077;-74
2022/11/11 06:42:49;;;;;;;12.23;5.60;;;;;;;;;;7384895;19;19994;-74
2022/11/11 06:45:14;;;;;;;13.38;5.47;;;;;;;;;;7388279;19;20009;-76
2022/11/11 06:47:41;;;;;;;14.93;5.63;;;;;;;;;;7387275;19;20007;-77
2022/11/11 06:50:07;;;;;;;20.17;6.20;;;;;;;;;;7393498;19;20022;-77
2022/11/11 06:52:32;;;;;;;14.90;6.80;;;;;;;;;;7390993;19;20006;-77
2022/11/11 06:54:57;;;;;;;14.32;6.05;;;;;;;;;;7391187;19;20002;-77
2022/11/11 06:57:23;;;;;;;17.10;6.25;;;;;;;;;;7392021;19;20041;-77
2022/11/11 06:59:49;;;;;;;16.17;6.45;;;;;;;;;;7391316;19;20030;-77
2022/11/11 07:02:14;;;;;;;13.13;5.82;;;;;;;;;;7390285;19;20022;-75
2022/11/11 07:04:39;;;;;;;13.95;6.35;;;;;;;;;;7394472;19;20038;-77
2022/11/11 07:07:05;;;;;;;14.48;5.80;;;;;;;;;;7391382;19;20378;-77
2022/11/11 07:09:30;;;;;;;12.30;5.15;;;;;;;;;;7392155;19;20457;-76
2022/11/11 07:11:56;;;;;;;15.32;5.90;;;;;;;;;;7391591;19;20010;-77
2022/11/11 07:14:21;;;;;;;23.95;5.53;;;;;;;;;;7391687;19;20070;-77
2022/11/11 07:16:46;;;;;;;16.30;5.93;;;;;;;;;;7393929;19;20050;-77
2022/11/11 07:19:12;;;;;;;12.95;6.13;;;;;;;;;;7395267;19;20813;-77
2022/11/11 07:21:37;;;;;;;27.33;6.35;;;;;;;;;;7388896;19;20074;-77
2022/11/11 07:24:02;;;;;;;13.52;5.97;;;;;;;;;;7394107;19;20029;-77
2022/11/11 07:26:28;;;;;;;18.08;6.57;;;;;;;;;;7393460;19;20340;-77
2022/11/11 07:28:53;;;;;;;20.08;6.50;;;;;;;;;;7395118;19;20010;-76
2022/11/11 07:31:18;;;;;;;16.60;5.97;;;;;;;;;;7391058;19;20005;-77
2022/11/11 07:33:44;;;;;;;13.23;6.22;;;;;;;;;;7395732;19;20003;-77
2022/11/11 07:36:09;;;;;;;17.73;5.72;;;;;;;;;;7394439;19;20464;-77
2022/11/11 07:38:34;;;;;;;21.90;9.05;;;;;;;;;;7394961;19;19999;-77
2022/11/11 07:41:00;;;;;;;16.30;7.55;;;;;;;;;;7393015;19;19990;-77
2022/11/11 07:43:25;;;;;;;15.95;5.88;;;;;;;;;;7391573;19;20048;-76
2022/11/11 07:45:53;;;;;;;19.20;6.07;;;;;;;;;;7389056;19;20041;-76
2022/11/11 07:48:18;;;;;;;14.80;6.13;;;;;;;;;;7392364;19;20456;-76
2022/11/11 07:50:44;;;;;;;17.52;6.47;;;;;;;;;;7392804;19;20005;-76
2022/11/11 07:53:09;;;;;;;18.15;5.93;;;;;;;;;;7389448;19;20309;-76
2022/11/11 07:55:34;;;;;;;19.40;6.43;;;;;;;;;;7389304;19;20022;-75
2022/11/11 07:58:01;;;;;;;15.27;6.13;;;;;;;;;;7391527;19;20078;-76
2022/11/11 08:00:26;;;;;;;19.35;6.03;;;;;;;;;;7390938;19;20023;-76
2022/11/11 08:02:52;;;;;;;15.70;6.13;;;;;;;;;;7390787;19;20042;-76
2022/11/11 08:05:17;;;;;;;16.23;5.95;;;;;;;;;;7388933;19;20416;-76
2022/11/11 08:07:43;;;;;;;14.93;6.80;;;;;;;;;;7390772;19;19995;-75
2022/11/11 08:10:10;;;;;;;18.45;6.30;;;;;;;;;;7392367;19;20010;-76
2022/11/11 08:15:19;;;;;;;21.17;6.50;;;;;;;;;;7392631;19;20100;-78
2022/11/11 08:17:44;;;;;;;19.15;6.93;;;;;;;;;;7390001;19;20571;-77
2022/11/11 08:20:10;;;;;;;15.38;6.93;;;;;;;;;;7389959;19;20018;-76
2022/11/11 08:22:40;;;;;;;13.80;6.15;;;;;;;;;;7386162;19;20013;-76
2022/11/11 08:25:08;;;;;;;19.42;7.20;;;;;;;;;;7390517;19;19994;-76
2022/11/11 08:27:34;;;;;;;15.77;6.93;;;;;;;;;;7387479;19;19998;-77
2022/11/11 08:30:00;;;;;;;19.30;7.75;;;;;;;;;;7385243;19;19999;-76
2022/11/11 08:32:25;;;;;;;17.23;7.63;;;;;;;;;;7388483;19;20006;-77
2022/11/11 08:34:51;;;;;;;16.55;7.68;;;;;;;;;;7389740;19;20059;-77
2022/11/11 08:37:16;;;;;;;37.15;7.25;;;;;;;;;;7387739;19;20054;-76
2022/11/11 08:39:41;;;;;;;19.33;6.50;;;;;;;;;;7387174;19;20021;-76
2022/11/11 08:42:06;;;;;;;18.90;7.72;;;;;;;;;;7383837;19;20699;-77
2022/11/11 08:44:32;;;;;;;29.27;7.47;;;;;;;;;;7388497;19;20017;-76
2022/11/11 08:46:57;;;;;;;15.95;6.82;;;;;;;;;;7391226;19;19998;-76
2022/11/11 08:49:22;;;;;;;23.90;7.43;;;;;;;;;;7389042;19;19999;-76
2022/11/11 08:51:48;;;;;;;15.68;6.88;;;;;;;;;;7388416;19;20464;-77
2022/11/11 08:54:13;;;;;;;16.67;7.13;;;;;;;;;;7390281;19;20003;-76
2022/11/11 08:56:39;;;;;;;18.52;7.72;;;;;;;;;;7390251;19;20014;-76
2022/11/11 08:59:04;;;;;;;18.73;7.18;;;;;;;;;;7389462;19;20006;-76
2022/11/11 09:01:30;;;;;;;15.48;7.50;;;;;;;;;;7385981;19;20113;-75
2022/11/11 09:03:56;;;;;;;15.63;7.07;;;;;;;;;;7389327;19;20009;-76
2022/11/11 09:06:21;;;;;;;19.15;7.47;;;;;;;;;;7388596;19;20023;-76
2022/11/11 09:08:46;;;;;;;20.08;7.45;;;;;;;;;;7390255;19;19995;-76
2022/11/11 09:11:12;;;;;;;21.25;7.00;;;;;;;;;;7386995;19;19995;-76
2022/11/11 09:13:37;;;;;;;16.65;7.68;;;;;;;;;;7386523;19;19998;-76
2022/11/11 09:16:03;;;;;;;17.38;8.43;;;;;;;;;;7389341;19;20003;-76
2022/11/11 09:18:30;;;;;;;17.98;8.73;;;;;;;;;;7394823;19;20054;-76
2022/11/11 09:21:06;;;;;;;18.98;8.45;;;;;;;;;;7394624;19;20452;-76
2022/11/11 09:23:31;;;;;;;18.42;8.63;;;;;;;;;;7395285;19;20025;-76
2022/11/11 09:26:02;;;;;;;14.50;7.45;;;;;;;;;;7397332;19;20002;-76
2022/11/11 09:28:29;;;;;;;16.80;9.43;;;;;;;;;;7395457;19;19998;-76
2022/11/11 09:30:54;;;;;;;20.40;8.68;;;;;;;;;;7396828;19;20390;-76
2022/11/11 09:33:19;;;;;;;15.43;8.27;;;;;;;;;;7391583;19;20003;-76
2022/11/11 09:35:45;;;;;;;16.70;8.80;;;;;;;;;;7398394;19;20027;-76
2022/11/11 09:38:10;;;;;;;16.63;9.10;;;;;;;;;;7396064;19;20106;-76
2022/11/11 09:40:47;;;;;;;19.27;10.15;;;;;;;;;;7393587;19;20524;-76
2022/11/11 09:43:23;;;;;;;23.42;9.43;;;;;;;;;;7391886;19;20002;-76
2022/11/11 09:46:08;;;;;;;20.63;9.18;;;;;;;;;;7393270;19;20487;-76
2022/11/11 09:48:45;;;;;;;19.92;9.95;;;;;;;;;;7395469;19;20212;-76
2022/11/11 09:51:20;;;;;;;17.13;9.07;;;;;;;;;;7392867;19;20016;-76
2022/11/11 09:53:53;;;;;;;18.55;8.80;;;;;;;;;;7394543;19;20006;-76
2022/11/11 09:56:21;;;;;;;21.83;9.15;;;;;;;;;;7394712;19;20027;-76
2022/11/11 09:59:07;;;;;;;20.92;9.73;;;;;;;;;;7391317;19;20007;-76
2022/11/11 10:01:57;;;;;;;19.67;9.13;;;;;;;;;;7390226;19;20062;-76
2022/11/11 10:04:50;;;;;;;22.13;8.30;;;;;;;;;;7391313;19;20006;-77
2022/11/11 10:07:34;;;;;;;18.13;9.02;;;;;;;;;;7393522;19;20003;-77
2022/11/11 10:10:10;;;;;;;26.35;9.32;;;;;;;;;;7393321;19;20002;-77
2022/11/11 10:12:42;;;;;;;18.33;9.27;;;;;;;;;;7393643;19;20023;-77
2022/11/11 10:15:13;;;;;;;18.80;9.05;;;;;;;;;;7392061;19;20019;-77
2022/11/11 10:17:41;;;;;;;14.85;8.48;;;;;;;;;;7393359;19;20009;-77
2022/11/11 10:20:15;;;;;;;17.88;8.00;;;;;;;;;;7394405;19;20002;-76
2022/11/11 10:22:42;;;;;;;18.27;8.52;;;;;;;;;;7390797;19;20007;-76
2022/11/11 10:25:11;;;;;;;16.13;7.88;;;;;;;;;;7391449;19;20330;-76
2022/11/11 10:27:44;;;;;;;30.77;8.98;;;;;;;;;;7394796;19;19995;-76
2022/11/11 10:30:23;;;;;;;16.20;8.55;;;;;;;;;;7390774;19;20001;-76
2022/11/11 10:33:23;;;;;;;20.80;9.13;;;;;;;;;;7392609;19;20010;-76
2022/11/11 10:35:50;;;;;;;15.02;8.38;;;;;;;;;;7392527;19;19999;-77
2022/11/11 10:38:45;;;;;;;17.02;8.52;;;;;;;;;;7391134;19;20086;-76
2022/11/11 10:41:14;;;;;;;19.70;8.68;;;;;;;;;;7387951;19;20023;-76
2022/11/11 10:43:44;;;;;;;21.95;8.95;;;;;;;;;;7392473;19;19998;-77
2022/11/11 10:46:25;;;;;;;19.20;9.05;;;;;;;;;;7393362;19;20023;-76
2022/11/11 10:49:20;;;;;;;19.85;9.65;;;;;;;;;;7393399;19;19998;-76
2022/11/11 10:52:08;;;;;;;18.65;9.30;;;;;;;;;;7389642;19;20006;-76
2022/11/11 10:54:44;;;;;;;20.17;9.80;;;;;;;;;;7394035;19;20003;-76
2022/11/11 10:57:22;;;;;;;22.23;10.70;;;;;;;;;;7391168;19;20354;-76
2022/11/11 11:00:07;;;;;;;24.52;10.73;;;;;;;;;;7392618;19;20002;-76
2022/11/11 11:02:45;;;;;;;25.83;9.43;;;;;;;;;;7391102;19;20357;-77
2022/11/11 11:05:18;;;;;;;22.55;10.40;;;;;;;;;;7391991;19;19998;-76
2022/11/11 11:07:48;;;;;;;24.73;10.15;;;;;;;;;;7394865;19;20005;-76
2022/11/11 11:10:18;;;;;;;24.58;11.07;;;;;;;;;;7392361;19;19999;-76
2022/11/11 11:13:02;;;;;;;18.65;9.75;;;;;;;;;;7392579;19;20058;-75
2022/11/11 11:15:29;;;;;;;20.25;9.68;;;;;;;;;;7390617;19;20484;-77
2022/11/11 11:18:06;;;;;;;26.85;11.38;;;;;;;;;;7388731;19;20010;-76
2022/11/11 11:20:32;;;;;;;22.67;10.95;;;;;;;;;;7389317;19;20003;-76
2022/11/11 11:22:59;;;;;;;20.90;10.63;;;;;;;;;;7392832;19;19994;-77
2022/11/11 11:25:28;;;;;;;28.98;10.82;;;;;;;;;;7391362;19;19999;-76
2022/11/11 11:28:08;;;;;;;23.42;10.15;;;;;;;;;;7392387;19;20006;-77
2022/11/11 11:30:33;;;;;;;21.50;10.30;;;;;;;;;;7393482;19;20312;-77
2022/11/11 11:33:04;;;;;;;22.45;10.77;;;;;;;;;;7392306;19;20065;-76
2022/11/11 11:35:36;;;;;;;23.75;11.10;;;;;;;;;;7391362;19;20006;-78
2022/11/11 11:38:04;;;;;;;20.33;10.43;;;;;;;;;;7392274;19;20503;-76
2022/11/11 11:40:56;;;;;;;24.38;10.32;;;;;;;;;;7389424;19;19998;-77
2022/11/11 11:43:35;;;;;;;19.35;10.23;;;;;;;;;;7389300;19;20002;-77
2022/11/11 11:46:04;;;;;;;30.30;11.65;;;;;;;;;;7395828;19;20003;-77
2022/11/11 11:49:05;;;;;;;20.48;10.18;;;;;;;;;;7396641;19;20009;-77
2022/11/11 11:51:30;;;;;;;19.30;10.80;;;;;;;;;;7391287;19;20013;-76
2022/11/11 11:54:16;;;;;;;17.95;10.40;;;;;;;;;;7390334;19;20007;-76
2022/11/11 11:56:49;;;;;;;20.02;10.48;;;;;;;;;;7392087;19;20258;-75
2022/11/11 11:59:31;;;;;;;21.95;10.68;;;;;;;;;;7387129;19;20010;-77
2022/11/11 12:02:11;;;;;;;17.70;9.57;;;;;;;;;;7387236;19;20002;-75
2022/11/11 12:05:17;;;;;;;25.90;10.65;;;;;;;;;;7390049;19;20424;-77
2022/11/11 12:08:06;;;;;;;25.15;10.70;;;;;;;;;;7390873;19;19998;-76
2022/11/11 12:10:53;;;;;;;22.08;10.20;;;;;;;;;;7392115;19;20022;-77
2022/11/11 12:13:45;;;;;;;20.95;10.77;;;;;;;;;;7387670;19;19998;-76
2022/11/11 12:16:20;;;;;;;22.88;10.80;;;;;;;;;;7391208;19;20023;-77
2022/11/11 12:19:24;;;;;;;22.63;10.80;;;;;;;;;;7387495;19;20085;-76
2022/11/11 12:22:30;;;;;;;21.83;11.00;;;;;;;;;;7385281;19;19998;-76
2022/11/11 12:25:03;;;;;;;24.23;11.43;;;;;;;;;;7391177;19;20028;-76
2022/11/11 12:27:43;;;;;;;23.40;11.30;;;;;;;;;;7388873;19;20016;-75
2022/11/11 12:30:13;;;;;;;21.65;11.23;;;;;;;;;;7390427;19;20003;-77
2022/11/11 12:33:23;;;;;;;24.75;11.20;;;;;;;;;;7387005;19;19998;-75
2022/11/11 12:36:19;;;;;;;22.60;11.35;;;;;;;;;;7385648;19;20465;-76
2022/11/11 12:38:53;;;;;;;24.38;10.73;;;;;;;;;;7391412;19;20474;-76
2022/11/11 12:41:24;;;;;;;21.85;11.30;;;;;;;;;;7385999;19;20006;-76
2022/11/11 12:44:01;;;;;;;21.65;11.18;;;;;;;;;;7388566;19;19999;-75
2022/11/11 12:46:47;;;;;;;23.90;11.43;;;;;;;;;;7389424;19;20639;-76
2022/11/11 12:49:37;;;;;;;22.10;12.32;;;;;;;;;;7387369;19;20002;-77
2022/11/11 12:52:26;;;;;;;20.52;11.20;;;;;;;;;;7386839;19;20002;-77
2022/11/11 12:55:19;;;;;;;20.30;11.20;;;;;;;;;;7397346;19;19999;-76
2022/11/11 12:57:57;;;;;;;20.50;10.95;;;;;;;;;;7395913;19;20379;-76
2022/11/11 13:00:25;;;;;;;23.48;12.00;;;;;;;;;;7396398;19;20139;-76
2022/11/11 13:03:12;;;;;;;24.13;11.23;;;;;;;;;;7395235;19;20002;-76
2022/11/11 13:05:53;;;;;;;21.15;10.63;;;;;;;;;;7396445;19;20002;-76
2022/11/11 13:08:18;;;;;;;17.08;10.13;;;;;;;;;;7397856;19;20426;-76
2022/11/11 13:11:06;;;;;;;21.73;10.68;;;;;;;;;;7398472;19;20019;-76
2022/11/11 13:14:29;;;;;;;22.33;11.48;;;;;;;;;;7392874;19;20009;-76
2022/11/11 13:16:59;;;;;;;28.38;11.00;;;;;;;;;;7390010;19;20357;-77
2022/11/11 13:19:40;;;;;;;19.00;11.02;;;;;;;;;;7391530;19;20114;-76
2022/11/11 13:22:21;;;;;;;20.63;10.70;;;;;;;;;;7393714;19;20006;-76
2022/11/11 13:24:48;;;;;;;;;;;;;;;;;;7398154;19;20351;-76
2022/11/11 13:27:15;;;;;;;22.50;9.38;;;;;;;;;;7394886;19;19972;-76
2022/11/11 13:30:25;;;;;;;23.42;10.77;;;;;;;;;;7395297;19;20017;-77
2022/11/11 13:33:04;;;;;;;21.35;10.00;;;;;;;;;;7394824;19;20058;-77
2022/11/11 13:35:41;;;;;;;22.90;10.45;;;;;;;;;;7394766;19;20313;-76
2022/11/11 13:38:25;;;;;;;22.67;10.73;;;;;;;;;;7396614;19;20328;-76
2022/11/11 13:40:54;;;;;;;19.83;10.70;;;;;;;;;;7395190;19;20017;-77
2022/11/11 13:43:29;;;;;;;21.92;11.05;;;;;;;;;;7390100;19;20019;-77
2022/11/11 13:45:57;;;;;;;16.48;9.65;;;;;;;;;;7395802;19;20102;-79
2022/11/11 13:48:35;;;;;;;22.25;10.95;;;;;;;;;;7396720;19;20473;-76
2022/11/11 13:51:18;;;;;;;18.48;9.35;;;;;;;;;;7393908;19;20023;-76
2022/11/11 13:53:46;;;;;;;21.15;9.77;;;;;;;;;;7395317;19;19998;-77
2022/11/11 13:56:21;;;;;;;20.65;11.25;;;;;;;;;;7396099;19;20098;-77
2022/11/11 13:58:48;;;;;;;25.05;11.55;;;;;;;;;;7396277;19;19999;-76
2022/11/11 14:01:15;;;;;;;21.67;11.43;;;;;;;;;;7390618;19;19999;-76
2022/11/11 14:03:43;;;;;;;21.92;11.35;;;;;;;;;;7391327;19;20351;-77
2022/11/11 14:06:15;;;;;;;22.35;11.43;;;;;;;;;;7393426;19;20003;-77
2022/11/11 14:08:46;;;;;;;20.08;10.93;;;;;;;;;;7393802;19;20078;-77
2022/11/11 14:11:26;;;;;;;22.50;11.48;;;;;;;;;;7390824;19;20506;-77
2022/11/11 14:13:54;;;;;;;22.55;12.07;;;;;;;;;;7394336;19;20003;-76
2022/11/11 14:16:34;;;;;;;21.83;11.88;;;;;;;;;;7395254;19;19998;-77
2022/11/11 14:19:18;;;;;;;23.63;12.00;;;;;;;;;;7394786;19;20003;-76
2022/11/11 14:21:55;;;;;;;22.52;11.40;;;;;;;;;;7391557;19;20003;-77
2022/11/11 14:24:42;;;;;;;22.80;11.45;;;;;;;;;;7394892;19;20359;-77
2022/11/11 14:27:07;;;;;;;25.48;11.43;;;;;;;;;;7392326;19;20006;-77
2022/11/11 14:29:36;;;;;;;26.25;11.13;;;;;;;;;;7391083;19;20028;-77
2022/11/11 14:32:09;;;;;;;28.63;11.40;;;;;;;;;;7390869;19;20031;-76
2022/11/11 14:35:00;;;;;;;23.70;12.07;;;;;;;;;;7393089;19;20017;-76
2022/11/11 14:37:34;;;;;;;26.10;12.27;;;;;;;;;;7392856;19;20083;-75
2022/11/11 14:40:00;;;;;;;27.15;12.63;;;;;;;;;;7393688;19;19999;-77
2022/11/11 14:42:34;;;;;;;25.20;12.00;;;;;;;;;;7393837;19;20038;-76
2022/11/11 14:45:04;;;;;;;28.92;11.98;;;;;;;;;;7392959;19;20005;-77
2022/11/11 14:47:30;;;;;;;25.67;11.90;;;;;;;;;;7393564;19;20023;-77
2022/11/11 14:49:58;;;;;;;26.80;11.98;;;;;;;;;;7391604;19;20247;-77
2022/11/11 14:52:42;;;;;;;24.65;13.25;;;;;;;;;;7392580;19;20014;-77
2022/11/11 14:55:30;;;;;;;26.35;13.45;;;;;;;;;;7393640;19;20372;-77
2022/11/11 14:58:04;;;;;;;28.58;13.10;;;;;;;;;;7392511;19;20066;-77
2022/11/11 15:00:32;;;;;;;28.83;13.10;;;;;;;;;;7392385;19;20074;-77
2022/11/11 15:03:09;;;;;;;26.17;13.18;;;;;;;;;;7390664;19;20002;-78
2022/11/11 15:05:46;;;;;;;27.42;13.15;;;;;;;;;;7394037;19;20019;-77
2022/11/11 15:08:23;;;;;;;24.60;11.98;;;;;;;;;;7393141;19;20066;-77
2022/11/11 15:11:18;;;;;;;24.15;11.25;;;;;;;;;;7381639;19;20298;-76
2022/11/11 15:14:06;;;;;;;24.55;11.93;;;;;;;;;;7391966;19;20002;-77
2022/11/11 15:17:13;;;;;;;22.73;11.93;;;;;;;;;;7391118;19;20462;-76
2022/11/11 15:19:39;;;;;;;22.35;10.80;;;;;;;;;;7389852;19;20003;-78
2022/11/11 15:22:46;;;;;;;25.65;11.90;;;;;;;;;;7389269;19;20010;-77
2022/11/11 15:25:27;;;;;;;32.85;12.32;;;;;;;;;;7388260;19;20006;-77
2022/11/11 15:28:01;;;;;;;33.17;13.90;;;;;;;;;;7391273;19;20007;-76
2022/11/11 15:30:56;;;;;;;33.88;13.02;;;;;;;;;;7392321;19;20010;-76
2022/11/11 15:33:31;;;;;;;29.05;12.60;;;;;;;;;;7389650;19;20002;-76
2022/11/11 15:36:18;;;;;;;40.55;13.38;;;;;;;;;;7391689;19;20009;-77
2022/11/11 15:38:43;;;;;;;80.35;14.23;;;;;;;;;;7391773;19;20070;-77
2022/11/11 15:41:23;;;;;;;25.48;12.95;;;;;;;;;;7389639;19;20006;-76
2022/11/11 15:43:49;;;;;;;51.10;14.55;;;;;;;;;;7391395;19;20023;-77
2022/11/11 15:46:25;;;;;;;50.75;14.05;;;;;;;;;;7392124;19;20006;-76
2022/11/11 15:48:51;;;;;;;50.35;13.20;;;;;;;;;;7368772;19;20414;-78
2022/11/11 15:51:37;;;;;;;47.03;12.90;;;;;;;;;;7390810;19;20002;-78
2022/11/11 15:54:32;;;;;;;60.42;14.00;;;;;;;;;;7390684;19;20006;-75
2022/11/11 15:56:57;;;;;;;25.02;11.88;;;;;;;;;;7391671;19;20023;-75
2022/11/11 15:59:30;;;;;;;63.60;13.27;;;;;;;;;;7389493;19;19999;-74
2022/11/11 16:01:57;;;;;;;57.17;12.93;;;;;;;;;;7377627;19;20010;-76
2022/11/11 16:04:23;;;;;;;36.83;13.35;;;;;;;;;;7388760;19;20022;-76
2022/11/11 16:06:50;;;;;;;47.65;13.02;;;;;;;;;;7385057;19;19999;-76